createdAt,value
2018-03-25T00:01:53.304Z,33.03
2018-03-25T00:04:21.240Z,39.40
2018-03-25T00:06:49.184Z,37.10
2018-03-25T00:09:17.094Z,37.70
2018-03-25T00:11:45.057Z,36.13
2018-03-25T00:14:13.014Z,35.47
2018-03-25T00:16:41.035Z,34.80
2018-03-25T00:19:08.959Z,34.73
2018-03-25T00:21:36.922Z,34.37
2018-03-25T00:24:04.946Z,35.40
2018-03-25T00:26:32.913Z,33.80
2018-03-25T00:29:00.842Z,34.90
2018-03-25T00:31:28.787Z,34.47
2018-03-25T00:33:56.736Z,37.90
2018-03-25T00:36:24.668Z,40.30
2018-03-25T00:38:52.618Z,38.57
2018-03-25T00:41:20.634Z,39.90
2018-03-25T00:43:48.559Z,37.63
2018-03-25T00:46:16.497Z,35.20
2018-03-25T00:48:44.433Z,38.70
2018-03-25T00:51:12.360Z,41.70
2018-03-25T00:53:40.302Z,43.23
2018-03-25T00:56:08.244Z,42.47
2018-03-25T00:58:36.173Z,33.60
2018-03-25T01:01:05.025Z,33.43
2018-03-25T01:03:32.973Z,43.30
2018-03-25T01:06:00.949Z,39.97
2018-03-25T01:08:28.892Z,36.97
2018-03-25T01:10:56.838Z,41.30
2018-03-25T01:13:24.784Z,40.43
2018-03-25T01:16:04.571Z,40.70
2018-03-25T01:18:32.674Z,43.30
2018-03-25T01:21:00.682Z,40.53
2018-03-25T01:23:28.682Z,38.97
2018-03-25T01:25:56.605Z,40.37
2018-03-25T01:28:24.604Z,35.23
2018-03-25T01:30:52.538Z,39.03
2018-03-25T01:33:20.544Z,37.70
2018-03-25T01:35:48.527Z,40.40
2018-03-25T01:38:16.496Z,39.03
2018-03-25T01:40:44.432Z,43.03
2018-03-25T01:43:12.386Z,40.27
2018-03-25T01:45:40.327Z,42.67
2018-03-25T01:48:08.279Z,42.00
2018-03-25T01:50:36.222Z,35.57
2018-03-25T01:53:04.201Z,39.40
2018-03-25T01:55:32.105Z,41.30
2018-03-25T01:58:00.052Z,39.57
2018-03-25T02:00:27.960Z,41.10
2018-03-25T02:02:55.878Z,41.63
2018-03-25T02:05:23.883Z,41.63
2018-03-25T02:07:51.805Z,37.43
2018-03-25T02:10:19.742Z,36.33
2018-03-25T02:12:47.664Z,37.50
2018-03-25T02:15:15.574Z,41.90
2018-03-25T02:17:43.541Z,38.53
2018-03-25T02:20:11.459Z,44.10
2018-03-25T02:22:39.377Z,47.13
2018-03-25T02:25:07.451Z,42.63
2018-03-25T02:27:35.436Z,43.93
2018-03-25T02:30:03.375Z,37.33
2018-03-25T02:32:31.379Z,45.67
2018-03-25T02:34:59.368Z,40.07
2018-03-25T02:37:27.307Z,39.83
2018-03-25T02:39:55.266Z,46.30
2018-03-25T02:42:23.290Z,44.33
2018-03-25T02:44:51.224Z,46.90
2018-03-25T02:47:19.165Z,48.20
2018-03-25T02:49:47.056Z,44.87
2018-03-25T02:52:15.017Z,45.20
2018-03-25T02:54:42.955Z,41.93
2018-03-25T02:57:10.921Z,40.77
2018-03-25T02:59:38.813Z,41.30
2018-03-25T03:02:08.797Z,42.37
2018-03-25T03:04:36.796Z,44.07
2018-03-25T03:07:04.851Z,41.90
2018-03-25T03:09:32.887Z,39.30
2018-03-25T03:12:00.936Z,39.93
2018-03-25T03:14:29.043Z,44.80
2018-03-25T03:16:57.051Z,41.67
2018-03-25T03:19:25.073Z,38.27
2018-03-25T03:21:53.150Z,44.50
2018-03-25T03:24:21.189Z,41.80
2018-03-25T03:26:49.210Z,44.43
2018-03-25T03:29:17.209Z,42.87
2018-03-25T03:31:45.234Z,48.33
2018-03-25T03:34:13.397Z,43.87
2018-03-25T03:36:41.414Z,44.00
2018-03-25T03:39:09.414Z,47.23
2018-03-25T03:41:37.400Z,45.00
2018-03-25T03:44:05.586Z,45.30
2018-03-25T03:46:33.934Z,48.30
2018-03-25T03:49:01.970Z,49.83
2018-03-25T03:51:30.004Z,44.83
2018-03-25T03:53:58.019Z,44.73
2018-03-25T03:56:26.036Z,44.97
2018-03-25T03:58:54.059Z,43.07
2018-03-25T04:01:22.058Z,47.93
2018-03-25T04:03:50.078Z,50.03
2018-03-25T04:06:18.075Z,50.90
2018-03-25T04:08:46.105Z,45.57
2018-03-25T04:11:14.624Z,44.97
2018-03-25T04:13:42.634Z,43.80
2018-03-25T04:16:10.704Z,44.43
2018-03-25T04:18:38.710Z,49.10
2018-03-25T04:21:06.723Z,48.10
2018-03-25T04:23:34.745Z,52.57
2018-03-25T04:26:02.784Z,49.97
2018-03-25T04:28:30.833Z,46.80
2018-03-25T04:30:58.825Z,46.27
2018-03-25T04:33:26.833Z,51.13
2018-03-25T04:35:54.905Z,45.83
2018-03-25T04:38:22.911Z,48.63
2018-03-25T04:40:51.016Z,51.77
2018-03-25T04:43:19.058Z,54.37
2018-03-25T04:45:47.680Z,53.37
2018-03-25T04:48:15.854Z,47.00
2018-03-25T04:50:43.910Z,53.40
2018-03-25T04:53:11.976Z,52.70
2018-03-25T04:55:39.983Z,57.27
2018-03-25T04:58:07.991Z,62.70
2018-03-25T05:00:35.989Z,52.60
2018-03-25T05:03:04.003Z,55.37
2018-03-25T05:05:32.016Z,54.40
2018-03-25T05:08:00.038Z,52.43
2018-03-25T05:10:28.011Z,52.00
2018-03-25T05:12:55.991Z,53.57
2018-03-25T05:15:24.012Z,54.40
2018-03-25T05:17:51.994Z,56.70
2018-03-25T05:20:20.021Z,56.57
2018-03-25T05:22:48.020Z,52.87
2018-03-25T05:25:16.038Z,51.90
2018-03-25T05:27:44.051Z,57.17
2018-03-25T05:30:12.097Z,51.80
2018-03-25T05:32:40.102Z,54.40
2018-03-25T05:35:08.084Z,56.53
2018-03-25T05:37:36.139Z,54.73
2018-03-25T05:40:04.197Z,55.97
2018-03-25T05:42:32.222Z,58.17
2018-03-25T05:45:00.255Z,53.70
2018-03-25T05:47:28.394Z,56.00
2018-03-25T05:49:56.387Z,52.67
2018-03-25T05:52:24.380Z,57.90
2018-03-25T05:54:52.422Z,56.80
2018-03-25T05:57:20.412Z,60.20
2018-03-25T05:59:48.425Z,64.50
2018-03-25T06:02:16.424Z,57.97
2018-03-25T06:04:44.514Z,59.87
2018-03-25T06:07:12.599Z,56.53
2018-03-25T06:09:40.638Z,63.40
2018-03-25T06:12:08.639Z,59.10
2018-03-25T06:14:36.710Z,55.03
2018-03-25T06:17:04.759Z,57.23
2018-03-25T06:19:32.822Z,60.47
2018-03-25T06:22:00.842Z,61.97
2018-03-25T06:24:28.876Z,55.27
2018-03-25T06:26:56.933Z,57.97
2018-03-25T06:29:25.000Z,60.27
2018-03-25T06:31:53.094Z,52.77
2018-03-25T06:34:21.129Z,59.40
2018-03-25T06:36:49.178Z,61.00
2018-03-25T06:39:17.235Z,54.57
2018-03-25T06:41:45.251Z,55.10
2018-03-25T06:44:13.338Z,56.20
2018-03-25T06:46:41.332Z,52.23
2018-03-25T06:49:09.369Z,54.07
2018-03-25T06:51:38.607Z,54.53
2018-03-25T06:54:06.978Z,53.53
2018-03-25T06:56:35.034Z,50.77
2018-03-25T06:59:03.058Z,53.40
2018-03-25T07:01:31.055Z,49.17
2018-03-25T07:03:59.347Z,53.77
2018-03-25T07:06:27.344Z,49.10
2018-03-25T07:08:56.308Z,51.70
2018-03-25T07:11:24.359Z,53.50
2018-03-25T07:13:52.426Z,49.70
2018-03-25T07:16:20.573Z,50.63
2018-03-25T07:18:48.581Z,53.20
2018-03-25T07:21:16.607Z,53.00
2018-03-25T07:23:44.614Z,52.30
2018-03-25T07:26:12.608Z,52.70
2018-03-25T07:28:40.645Z,50.40
2018-03-25T07:31:08.630Z,54.03
2018-03-25T07:33:36.625Z,52.90
2018-03-25T07:36:04.648Z,45.30
2018-03-25T07:38:32.655Z,47.20
2018-03-25T07:41:00.720Z,48.83
2018-03-25T07:43:28.710Z,46.37
2018-03-25T07:45:56.741Z,49.13
2018-03-25T07:48:24.748Z,44.07
2018-03-25T07:50:52.755Z,42.87
2018-03-25T07:53:20.783Z,49.80
2018-03-25T07:55:49.701Z,45.17
2018-03-25T07:58:17.764Z,41.83
2018-03-25T08:00:45.868Z,45.17
2018-03-25T08:03:14.005Z,40.77
2018-03-25T08:05:42.127Z,42.97
2018-03-25T08:08:10.169Z,39.83
2018-03-25T08:10:38.201Z,37.73
2018-03-25T08:13:06.817Z,38.70
2018-03-25T08:15:34.832Z,36.37
2018-03-25T08:18:02.827Z,36.50
2018-03-25T08:20:31.518Z,34.77
2018-03-25T08:22:59.591Z,36.53
2018-03-25T08:25:27.677Z,35.13
2018-03-25T08:27:55.695Z,35.33
2018-03-25T08:30:23.763Z,35.27
2018-03-25T08:32:51.796Z,33.60
2018-03-25T08:35:19.808Z,32.00
2018-03-25T08:37:47.800Z,34.07
2018-03-25T08:40:15.971Z,34.83
2018-03-25T08:42:43.965Z,33.50
2018-03-25T08:45:12.077Z,34.50
2018-03-25T08:47:40.120Z,34.47
2018-03-25T08:50:08.266Z,33.63
2018-03-25T08:52:36.307Z,30.63
2018-03-25T08:55:04.326Z,31.43
2018-03-25T08:57:32.366Z,48.53
2018-03-25T09:00:00.353Z,33.23
2018-03-25T09:02:28.371Z,33.23
2018-03-25T09:04:56.396Z,34.10
2018-03-25T09:07:24.392Z,29.50
2018-03-25T09:09:52.440Z,27.40
2018-03-25T09:12:20.459Z,28.57
2018-03-25T09:14:48.511Z,28.20
2018-03-25T09:17:16.545Z,28.33
2018-03-25T09:19:44.577Z,27.47
2018-03-25T09:22:12.588Z,29.60
2018-03-25T09:24:40.586Z,27.23
2018-03-25T09:27:08.637Z,28.00
2018-03-25T09:29:36.656Z,29.63
2018-03-25T09:32:06.037Z,31.60
2018-03-25T09:34:34.275Z,31.47
2018-03-25T09:37:02.438Z,30.87
2018-03-25T09:39:30.465Z,27.33
2018-03-25T09:41:58.527Z,27.17
2018-03-25T09:44:27.187Z,29.23
2018-03-25T09:46:55.169Z,26.03
2018-03-25T09:49:23.194Z,28.33
2018-03-25T09:51:51.201Z,25.87
2018-03-25T09:54:19.239Z,25.17
2018-03-25T09:56:47.270Z,25.60
2018-03-25T09:59:15.718Z,25.27
2018-03-25T10:01:49.488Z,24.53
2018-03-25T10:04:17.589Z,24.17
2018-03-25T10:06:45.622Z,24.87
2018-03-25T10:09:13.795Z,23.37
2018-03-25T10:11:41.818Z,22.97
2018-03-25T10:14:09.826Z,89.03
2018-03-25T10:16:38.172Z,88.90
2018-03-25T10:19:06.261Z,44.97
2018-03-25T10:21:34.310Z,37.63
2018-03-25T10:24:02.335Z,31.13
2018-03-25T10:26:30.359Z,21.97
2018-03-25T10:28:58.398Z,17.93
2018-03-25T10:31:26.548Z,18.13
2018-03-25T10:33:54.603Z,19.80
2018-03-25T10:36:22.631Z,18.50
2018-03-25T10:38:50.655Z,20.67
2018-03-25T10:41:18.704Z,17.30
2018-03-25T10:43:46.810Z,19.50
2018-03-25T10:46:14.944Z,20.13
2018-03-25T10:48:42.934Z,18.10
2018-03-25T10:51:10.957Z,20.80
2018-03-25T10:53:39.029Z,19.73
2018-03-25T10:56:07.026Z,20.90
2018-03-25T10:58:35.006Z,16.87
2018-03-25T11:01:03.041Z,19.37
2018-03-25T11:03:31.107Z,18.33
2018-03-25T11:06:00.505Z,18.93
2018-03-25T11:08:29.882Z,18.90
2018-03-25T11:10:57.946Z,19.00
2018-03-25T11:13:26.119Z,17.73
2018-03-25T11:15:54.293Z,16.50
2018-03-25T11:18:22.365Z,16.43
2018-03-25T11:20:50.517Z,17.40
2018-03-25T11:23:18.606Z,20.00
2018-03-25T11:25:46.726Z,17.87
2018-03-25T11:28:14.866Z,18.27
2018-03-25T11:30:42.924Z,18.40
2018-03-25T11:33:11.098Z,16.27
2018-03-25T11:35:39.121Z,17.10
2018-03-25T11:38:07.191Z,18.67
2018-03-25T11:40:35.232Z,18.43
2018-03-25T11:43:03.285Z,18.47
2018-03-25T11:45:31.385Z,18.27
2018-03-25T11:47:59.420Z,19.27
2018-03-25T11:50:27.443Z,18.37
2018-03-25T11:52:55.463Z,17.07
2018-03-25T11:55:23.538Z,18.23
2018-03-25T11:57:51.605Z,17.97
2018-03-25T12:00:19.680Z,20.23
2018-03-25T12:02:47.794Z,21.53
2018-03-25T12:05:15.820Z,22.50
2018-03-25T12:07:43.869Z,23.33
2018-03-25T12:10:11.912Z,30.47
2018-03-25T12:12:39.936Z,31.23
2018-03-25T12:15:08.014Z,34.10
2018-03-25T12:17:36.025Z,36.77
2018-03-25T12:20:04.362Z,34.70
2018-03-25T12:22:32.367Z,33.13
2018-03-25T12:25:00.428Z,32.17
2018-03-25T12:27:28.489Z,33.10
2018-03-25T12:29:56.493Z,34.67
2018-03-25T12:32:24.504Z,32.27
2018-03-25T12:34:52.649Z,34.07
2018-03-25T12:37:20.791Z,34.07
2018-03-25T12:39:48.812Z,33.03
2018-03-25T12:42:16.859Z,31.07
2018-03-25T12:44:45.355Z,35.30
2018-03-25T12:47:13.661Z,31.23
2018-03-25T12:49:42.307Z,28.60
2018-03-25T12:52:10.351Z,27.70
2018-03-25T12:54:38.371Z,29.87
2018-03-25T12:57:06.366Z,27.33
2018-03-25T12:59:34.385Z,30.53
2018-03-25T13:02:02.513Z,27.70
2018-03-25T13:04:30.522Z,26.17
2018-03-25T13:06:58.531Z,25.10
2018-03-25T13:09:26.603Z,23.47
2018-03-25T13:11:54.605Z,25.67
2018-03-25T13:14:22.682Z,27.53
2018-03-25T13:16:50.706Z,26.83
2018-03-25T13:19:18.699Z,26.47
2018-03-25T13:21:46.889Z,25.13
2018-03-25T13:24:14.988Z,22.87
2018-03-25T13:26:42.993Z,25.90
2018-03-25T13:29:11.088Z,22.47
2018-03-25T13:31:39.107Z,22.10
2018-03-25T13:34:07.128Z,23.43
2018-03-25T13:36:35.389Z,26.00
2018-03-25T13:39:03.452Z,21.30
2018-03-25T13:41:31.459Z,23.20
2018-03-25T13:43:59.479Z,21.40
2018-03-25T13:46:27.497Z,19.87
2018-03-25T13:48:56.093Z,19.13
2018-03-25T13:51:24.118Z,26.73
2018-03-25T13:53:52.239Z,20.17
2018-03-25T13:56:20.225Z,17.70
2018-03-25T13:58:48.544Z,25.40
2018-03-25T14:01:16.595Z,18.90
2018-03-25T14:03:44.793Z,20.60
2018-03-25T14:06:12.862Z,19.40
2018-03-25T14:08:40.906Z,21.90
2018-03-25T14:11:08.960Z,20.53
2018-03-25T14:13:37.001Z,19.70
2018-03-25T14:16:05.081Z,20.30
2018-03-25T14:18:33.115Z,18.20
2018-03-25T14:21:01.145Z,20.20
2018-03-25T14:23:29.217Z,21.17
2018-03-25T14:25:57.239Z,19.27
2018-03-25T14:28:25.340Z,18.20
2018-03-25T14:30:53.530Z,25.10
2018-03-25T14:33:21.634Z,22.43
2018-03-25T14:35:49.781Z,23.87
2018-03-25T14:38:17.819Z,24.60
2018-03-25T14:40:45.860Z,28.40
2018-03-25T14:43:13.946Z,31.33
2018-03-25T14:45:42.302Z,31.37
2018-03-25T14:48:10.938Z,21.87
2018-03-25T14:50:38.998Z,23.90
2018-03-25T14:53:07.132Z,23.70
2018-03-25T14:55:35.186Z,25.23
2018-03-25T14:58:03.246Z,22.13
2018-03-25T15:00:31.357Z,27.67
2018-03-25T15:02:59.414Z,22.97
2018-03-25T15:05:27.408Z,22.93
2018-03-25T15:07:55.410Z,19.87
2018-03-25T15:10:23.497Z,25.00
2018-03-25T15:12:51.495Z,26.17
2018-03-25T15:15:19.539Z,21.47
2018-03-25T15:17:47.585Z,23.80
2018-03-25T15:20:15.625Z,19.33
2018-03-25T15:22:43.707Z,21.00
2018-03-25T15:25:11.768Z,21.43
2018-03-25T15:27:39.810Z,19.30
2018-03-25T15:30:07.927Z,19.90
2018-03-25T15:32:36.015Z,23.40
2018-03-25T15:35:04.114Z,22.67
2018-03-25T15:37:32.127Z,23.27
2018-03-25T15:40:00.181Z,20.87
2018-03-25T15:42:28.253Z,26.87
2018-03-25T15:44:56.284Z,21.97
2018-03-25T15:47:24.305Z,23.73
2018-03-25T15:49:52.373Z,23.00
2018-03-25T15:52:20.496Z,21.83
2018-03-25T15:54:48.556Z,23.63
2018-03-25T15:57:17.367Z,24.63
2018-03-25T15:59:48.266Z,22.10
2018-03-25T16:02:16.364Z,19.70
2018-03-25T16:04:44.678Z,22.00
2018-03-25T16:07:12.706Z,21.33
2018-03-25T16:09:40.829Z,21.13
2018-03-25T16:12:08.796Z,23.00
2018-03-25T16:14:36.822Z,22.13
2018-03-25T16:17:04.873Z,19.97
2018-03-25T16:19:32.928Z,21.47
2018-03-25T16:22:01.068Z,20.23
2018-03-25T16:24:30.320Z,24.20
2018-03-25T16:26:58.443Z,21.50
2018-03-25T16:29:26.857Z,21.10
2018-03-25T16:31:54.933Z,22.50
2018-03-25T16:34:22.963Z,21.47
2018-03-25T16:36:50.970Z,21.80
2018-03-25T16:39:18.973Z,17.57
2018-03-25T16:41:47.001Z,21.50
2018-03-25T16:44:15.010Z,21.53
2018-03-25T16:46:43.037Z,17.47
2018-03-25T16:49:11.026Z,21.47
2018-03-25T16:51:39.067Z,18.50
2018-03-25T16:54:07.059Z,25.70
2018-03-25T16:56:35.089Z,20.13
2018-03-25T16:59:03.096Z,21.63
2018-03-25T17:01:31.138Z,18.70
2018-03-25T17:03:59.154Z,21.73
2018-03-25T17:06:27.349Z,20.57
2018-03-25T17:08:55.354Z,20.60
2018-03-25T17:11:23.399Z,24.40
2018-03-25T17:13:51.411Z,21.50
2018-03-25T17:16:19.406Z,20.30
2018-03-25T17:18:47.398Z,26.07
2018-03-25T17:21:15.435Z,25.43
2018-03-25T17:23:43.474Z,24.73
2018-03-25T17:26:11.478Z,19.20
2018-03-25T17:28:39.485Z,19.80
2018-03-25T17:31:07.847Z,19.13
2018-03-25T17:33:35.838Z,24.67
2018-03-25T17:36:04.118Z,18.87
2018-03-25T17:38:32.166Z,25.40
2018-03-25T17:41:00.182Z,20.90
2018-03-25T17:43:28.199Z,20.43
2018-03-25T17:45:56.173Z,22.40
2018-03-25T17:48:24.179Z,21.20
2018-03-25T17:50:52.219Z,23.13
2018-03-25T17:53:20.270Z,19.73
2018-03-25T17:55:48.291Z,23.37
2018-03-25T17:58:16.293Z,26.13
2018-03-25T18:00:44.847Z,22.13
2018-03-25T18:03:13.316Z,21.77
2018-03-25T18:05:41.337Z,25.70
2018-03-25T18:08:09.465Z,22.43
2018-03-25T18:10:37.476Z,178.60
2018-03-25T18:13:06.147Z,115.90
2018-03-25T18:15:34.177Z,32.03
2018-03-25T18:18:02.177Z,24.97
2018-03-25T18:20:30.195Z,22.10
2018-03-25T18:22:58.236Z,23.20
2018-03-25T18:25:26.236Z,20.70
2018-03-25T18:27:54.300Z,23.37
2018-03-25T18:30:22.313Z,22.53
2018-03-25T18:32:50.631Z,21.07
2018-03-25T18:35:18.803Z,22.73
2018-03-25T18:37:46.827Z,22.40
2018-03-25T18:40:15.457Z,20.00
2018-03-25T18:42:43.460Z,25.13
2018-03-25T18:45:13.372Z,21.60
2018-03-25T18:47:41.435Z,21.40
2018-03-25T18:50:09.465Z,23.40
2018-03-25T18:52:37.454Z,29.50
2018-03-25T18:55:05.455Z,26.07
2018-03-25T18:57:33.486Z,23.57
2018-03-25T19:00:01.494Z,27.30
2018-03-25T19:02:29.535Z,25.60
2018-03-25T19:04:58.792Z,27.70
2018-03-25T19:07:26.833Z,29.70
2018-03-25T19:09:56.683Z,26.00
2018-03-25T19:12:25.163Z,60.57
2018-03-25T19:14:53.371Z,98.33
2018-03-25T19:17:21.470Z,73.40
2018-03-25T19:19:49.569Z,59.23
2018-03-25T19:22:17.577Z,73.33
2018-03-25T19:24:45.589Z,102.33
2018-03-25T19:27:13.683Z,63.87
2018-03-25T19:29:41.736Z,45.17
2018-03-25T19:32:09.860Z,158.50
2018-03-25T19:34:37.966Z,114.27
2018-03-25T19:37:06.276Z,86.20
2018-03-25T19:39:34.329Z,52.00
2018-03-25T19:42:02.886Z,41.23
2018-03-25T19:44:30.896Z,40.60
2018-03-25T19:46:59.477Z,41.40
2018-03-25T19:49:27.552Z,36.97
2018-03-25T19:51:55.578Z,33.73
2018-03-25T19:54:23.623Z,33.60
2018-03-25T19:56:51.664Z,34.10
2018-03-25T19:59:19.651Z,30.13
2018-03-25T20:01:49.951Z,51.10
2018-03-25T20:04:18.027Z,105.23
2018-03-25T20:06:46.026Z,94.00
2018-03-25T20:09:14.069Z,99.40
2018-03-25T20:11:42.115Z,86.87
2018-03-25T20:14:10.177Z,117.67
2018-03-25T20:16:38.236Z,160.00
2018-03-25T20:19:07.287Z,154.10
2018-03-25T20:21:35.391Z,121.83
2018-03-25T20:24:03.878Z,58.57
2018-03-25T20:26:31.905Z,45.07
2018-03-25T20:29:01.131Z,55.67
2018-03-25T20:31:29.189Z,46.60
2018-03-25T20:33:57.191Z,49.73
2018-03-25T20:36:25.862Z,25.83
2018-03-25T20:38:54.137Z,26.93
2018-03-25T20:41:22.176Z,25.97
2018-03-25T20:43:50.189Z,28.97
2018-03-25T20:46:19.114Z,31.33
2018-03-25T20:48:47.137Z,25.57
2018-03-25T20:51:15.314Z,31.50
2018-03-25T20:53:43.491Z,31.73
2018-03-25T20:56:11.610Z,30.10
2018-03-25T20:58:39.651Z,40.80
2018-03-25T21:01:07.966Z,38.30
2018-03-25T21:03:36.202Z,32.07
2018-03-25T21:06:04.267Z,29.23
2018-03-25T21:08:32.912Z,34.73
2018-03-25T21:11:01.231Z,74.03
2018-03-25T21:13:29.304Z,36.20
2018-03-25T21:15:57.340Z,34.00
2018-03-25T21:18:25.699Z,33.40
2018-03-25T21:20:53.810Z,29.70
2018-03-25T21:23:21.855Z,30.23
2018-03-25T21:25:49.866Z,31.13
2018-03-25T21:28:17.876Z,32.90
2018-03-25T21:30:51.748Z,43.97
2018-03-25T21:33:19.856Z,29.87
2018-03-25T21:35:47.942Z,34.87
2018-03-25T21:38:16.300Z,35.83
2018-03-25T21:40:45.135Z,28.77
2018-03-25T21:43:13.161Z,29.43
2018-03-25T21:45:41.218Z,28.97
2018-03-25T21:48:09.303Z,39.20
2018-03-25T21:50:37.497Z,29.93
2018-03-25T21:53:05.521Z,49.20
2018-03-25T21:55:33.557Z,37.30
2018-03-25T21:58:01.624Z,30.17
2018-03-25T22:00:29.658Z,32.37
2018-03-25T22:03:07.394Z,30.27
2018-03-25T22:05:35.427Z,29.47
2018-03-25T22:08:03.479Z,27.27
2018-03-25T22:10:31.507Z,28.93
2018-03-25T22:12:59.555Z,33.30
2018-03-25T22:15:27.621Z,31.20
2018-03-25T22:17:55.720Z,33.33
2018-03-25T22:20:23.746Z,33.30
2018-03-25T22:22:52.136Z,35.10
2018-03-25T22:25:20.177Z,27.63
2018-03-25T22:27:48.192Z,29.57
2018-03-25T22:30:16.910Z,29.07
2018-03-25T22:32:44.981Z,26.73
2018-03-25T22:35:12.978Z,34.03
2018-03-25T22:37:40.983Z,29.20
2018-03-25T22:40:09.003Z,30.10
2018-03-25T22:42:37.638Z,30.43
2018-03-25T22:45:06.467Z,31.63
2018-03-25T22:47:35.724Z,30.53
2018-03-25T22:50:03.722Z,31.13
2018-03-25T22:52:31.815Z,33.17
2018-03-25T22:55:05.751Z,32.10
2018-03-25T22:57:33.790Z,31.53
2018-03-25T23:00:01.818Z,33.80
2018-03-25T23:02:29.862Z,34.03
2018-03-25T23:04:57.889Z,35.97
2018-03-25T23:07:26.433Z,35.90
2018-03-25T23:09:58.258Z,35.20
2018-03-25T23:12:26.598Z,34.90
2018-03-25T23:14:54.585Z,34.00
2018-03-25T23:17:22.566Z,35.27
2018-03-25T23:19:50.593Z,33.70
2018-03-25T23:22:18.599Z,34.63
2018-03-25T23:24:47.214Z,41.77
2018-03-25T23:27:15.270Z,33.00
2018-03-25T23:29:43.269Z,36.23
2018-03-25T23:32:11.282Z,35.83
2018-03-25T23:34:39.306Z,35.47
2018-03-25T23:37:07.302Z,37.67
2018-03-25T23:39:36.368Z,39.63
2018-03-25T23:42:04.431Z,33.27
2018-03-25T23:44:32.426Z,35.27
2018-03-25T23:47:00.442Z,38.20
2018-03-25T23:49:28.461Z,37.60
2018-03-25T23:51:57.115Z,43.23
2018-03-25T23:54:25.158Z,36.47
2018-03-25T23:56:53.195Z,38.73
2018-03-25T23:59:21.248Z,40.00
